• Join FlightAware (Why Join?)
  • Login
  • US Flag 
04:29AM EDT


 

Airport Tracker/Info


-or-


 

Live Flight TrackerFlight Track Log ✈ MEDFLT4 ✈ 23-Jun-2013 ✈ KACK - KBED

Flight Track Log - Related Links

Times and Time Zones

All times are in EDT time to prevent confusion due to time zone crossing. See the MEDFLT4 flight status page for this flight to view local times or setup timezone preferences in your user account.

Time Position Orientation Groundspeed Altitude Reporting Facility
EDT Latitude Longitude Course Direction KTS MPH feet Rate Location/Type
09:49PM 41.5009 -70.2560 330° Northwest  Level FlightAware Approximate
09:50PM 41.5519 -70.2954 330° Northwest  Level FlightAware Approximate
09:51PM 41.6029 -70.3350 330° Northwest  Level FlightAware Approximate
09:52PM 41.6539 -70.3745 330° Northwest  Level FlightAware Approximate
09:53PM 41.7048 -70.4142 330° Northwest  Level FlightAware Approximate
09:53PM 41.7167 -70.5667 317° Northwest 244 281 4,000  Level KA90
09:54PM 41.7558 -70.4539 330° Northwest  Level FlightAware Approximate
09:55PM 41.8067 -70.4937 330° Northwest  Level FlightAware Approximate
09:55PM 41.8000 -70.6333 329° Northwest 245 282 4,000  Level KA90
09:56PM 41.8577 -70.5335 330° Northwest  Level FlightAware Approximate
09:56PM 41.8667 -70.6833 331° Northwest 245 282 4,000  Level KA90
09:57PM 41.9073 -70.5757 317° Northwest  Level FlightAware Approximate
09:57PM 41.9167 -70.7500 315° West 244 281 4,000  Level KA90
09:58PM 41.9504 -70.6297 317° Northwest  Level FlightAware Approximate
09:58PM 41.9667 -70.8000 323° Northwest 246 283 4,000  Level KA90
09:59PM 42.0333 -70.8500 331° Northwest 245 282 4,000  Level KA90
10:00PM 42.0833 -70.9000 323° Northwest 244 281 4,000  Level KA90
10:01PM 42.1333 -70.9667 315° West 245 282 4,000  Level KA90
10:02PM 42.2000 -71.0167 331° Northwest 243 280 4,000 -240 Level KA90
10:03PM 42.2500 -71.0667 323° Northwest 238 274 3,600 -540 Descending KA90
10:04PM 42.3000 -71.1167 324° Northwest 229 264 3,000 -540 Descending KA90
10:05PM 42.3500 -71.1500 334° Northwest 215 247 2,600 -540 Descending KA90
10:06PM 42.4000 -71.1667 346° North 187 215 2,000 -420 Descending KA90
10:07PM 42.4500 -71.1833 346° North 144 166 1,800 -540 Descending KA90
10:08PM 42.4667 -71.2167 304° West 108 124 1,000 -720 Descending KA90
10:09PM 42.4667 -71.2500 270° West 111 128 500 -600 Descending KA90
10:11PM 42.4667 -71.2833 324° Northwest  Level FlightAware Approximate
10:18PM 42.4699 -71.2890 324° Northwest  Level Estimated
10:19PM 42.4667 -71.2833 324° Northwest  Level FlightAware Approximate
10:20PM 42.4699 -71.2890 324° Northwest  Level Estimated
10:21PM 42.4667 -71.2833 324° Northwest  Level FlightAware Approximate
10:22PM 42.4699 -71.2890 324° Northwest  Level Estimated